Terminal Aerodrome Forecast
Issued by NWS

Home | Current Version | Previous Version | Text Only | Print | Product List | Glossary On
Versions: 1 2 3 4 5 6 7 8 9 10 11 12 13 14 15 16 17 18 19
000
FTUS41 KBOX 211120
TAFFMH
TAF
KFMH 211120Z 2112/2212 29008KT P6SM FEW050
     FM211900 27008KT P6SM SCT050
     FM212100 24007KT P6SM SCT060
     FM220100 28005KT P6SM FEW060
     FM220400 33004KT P6SM SKC=

USA.gov is the U.S. government's official web portal to all federal, state and local government web resources and services.